createdAt,value
2022-10-23T00:00:33.799Z,97.44
2022-10-23T00:01:33.727Z,97.65
2022-10-23T00:02:33.747Z,97.55
2022-10-23T00:03:33.698Z,97.69
2022-10-23T00:04:33.688Z,97.89
2022-10-23T00:05:34.826Z,98.20
2022-10-23T00:06:33.707Z,98.10
2022-10-23T00:07:33.692Z,98.30
2022-10-23T00:08:33.697Z,98.30
2022-10-23T00:09:33.655Z,98.30
2022-10-23T00:10:33.645Z,98.30
2022-10-23T00:11:33.679Z,98.61
2022-10-23T00:12:34.027Z,98.61
2022-10-23T00:13:33.636Z,98.50
2022-10-23T00:14:33.616Z,98.30
2022-10-23T00:15:33.614Z,98.20
2022-10-23T00:16:33.705Z,98.30
2022-10-23T00:17:34.056Z,98.30
2022-10-23T00:18:33.596Z,98.30
2022-10-23T00:19:33.742Z,98.10
2022-10-23T00:20:33.613Z,98.20
2022-10-23T00:21:33.565Z,98.30
2022-10-23T00:22:33.592Z,98.30
2022-10-23T00:23:33.555Z,98.20
2022-10-23T00:24:33.552Z,98.30
2022-10-23T00:25:33.565Z,98.41
2022-10-23T00:26:33.545Z,98.50
2022-10-23T00:27:33.525Z,98.41
2022-10-23T00:28:33.523Z,98.41
2022-10-23T00:29:33.512Z,98.41
2022-10-23T00:30:33.532Z,98.30
2022-10-23T00:31:33.512Z,98.20
2022-10-23T00:32:33.506Z,98.20
2022-10-23T00:33:33.494Z,98.10
2022-10-23T00:34:34.374Z,97.96
2022-10-23T00:35:33.960Z,97.96
2022-10-23T00:36:33.501Z,98.00
2022-10-23T00:37:33.572Z,97.85
2022-10-23T00:38:33.473Z,97.85
2022-10-23T00:39:33.591Z,97.75
2022-10-23T00:40:33.602Z,97.65
2022-10-23T00:41:33.528Z,97.24
2022-10-23T00:42:33.652Z,97.14
2022-10-23T00:43:33.841Z,97.24
2022-10-23T00:44:33.440Z,97.14
2022-10-23T00:45:33.831Z,97.24
2022-10-23T00:46:33.864Z,97.14
2022-10-23T00:47:33.881Z,97.49
2022-10-23T00:48:33.480Z,97.60
2022-10-23T00:49:34.552Z,97.89
2022-10-23T00:50:34.072Z,98.10
2022-10-23T00:51:34.831Z,98.20
2022-10-23T00:52:33.691Z,98.10
2022-10-23T00:53:34.129Z,98.20
2022-10-23T00:54:34.321Z,97.96
2022-10-23T00:55:33.553Z,97.44
2022-10-23T00:56:33.399Z,97.04
2022-10-23T00:57:33.765Z,96.94
2022-10-23T00:58:33.361Z,97.24
2022-10-23T00:59:33.738Z,97.04
2022-10-23T01:00:34.289Z,97.04
2022-10-23T01:01:34.338Z,96.94
2022-10-23T01:02:33.592Z,97.04
2022-10-23T01:03:34.250Z,97.08
2022-10-23T01:04:34.159Z,97.19
2022-10-23T01:05:34.394Z,97.39
2022-10-23T01:06:34.228Z,97.60
2022-10-23T01:07:34.126Z,97.60
2022-10-23T01:08:34.287Z,97.49
2022-10-23T01:09:34.188Z,97.24
2022-10-23T01:10:33.638Z,96.83
2022-10-23T01:11:33.241Z,96.63
2022-10-23T01:12:34.158Z,96.23
2022-10-23T01:13:33.218Z,96.12
2022-10-23T01:14:34.447Z,96.12
2022-10-23T01:15:33.407Z,96.12
2022-10-23T01:16:33.458Z,96.33
2022-10-23T01:17:33.627Z,96.73
2022-10-23T01:18:33.217Z,96.78
2022-10-23T01:19:33.639Z,96.98
2022-10-23T01:20:33.236Z,97.29
2022-10-23T01:21:33.697Z,97.39
2022-10-23T01:22:33.251Z,97.49
2022-10-23T01:23:33.865Z,97.69
2022-10-23T01:24:33.875Z,97.84
2022-10-23T01:25:33.939Z,97.84
2022-10-23T01:26:33.943Z,98.05
2022-10-23T01:27:33.994Z,98.35
2022-10-23T01:28:33.493Z,98.75
2022-10-23T01:29:34.063Z,98.91
2022-10-23T01:30:33.941Z,99.21
2022-10-23T01:31:33.116Z,99.11
2022-10-23T01:32:33.127Z,99.21
2022-10-23T01:33:33.134Z,99.31
2022-10-23T01:34:33.185Z,99.21
2022-10-23T01:35:33.345Z,99.31
2022-10-23T01:36:33.369Z,99.92
2022-10-23T01:37:33.365Z,99.62
2022-10-23T01:38:33.034Z,99.52
2022-10-23T01:39:33.035Z,99.99
2022-10-23T01:40:33.592Z,99.92
2022-10-23T01:41:33.016Z,99.52
2022-10-23T01:42:33.023Z,99.67
2022-10-23T01:43:32.993Z,99.67
2022-10-23T01:44:33.043Z,98.75
2022-10-23T01:45:33.043Z,98.60
2022-10-23T01:46:32.972Z,99.11
2022-10-23T01:47:32.971Z,99.11
2022-10-23T01:48:32.971Z,99.52
2022-10-23T01:49:33.073Z,99.41
2022-10-23T01:50:33.092Z,99.37
2022-10-23T01:51:32.940Z,99.16
2022-10-23T01:52:33.251Z,99.16
2022-10-23T01:53:32.939Z,99.16
2022-10-23T01:54:32.922Z,98.71
2022-10-23T01:55:32.952Z,98.20
2022-10-23T01:56:32.962Z,98.10
2022-10-23T01:57:32.903Z,98.00
2022-10-23T01:58:32.905Z,98.00
2022-10-23T01:59:32.903Z,97.69
2022-10-23T02:00:32.920Z,97.39
2022-10-23T02:01:32.986Z,97.80
2022-10-23T02:02:32.976Z,97.60
2022-10-23T02:03:32.860Z,97.49
2022-10-23T02:04:32.852Z,97.80
2022-10-23T02:05:32.906Z,98.10
2022-10-23T02:06:32.841Z,97.89
2022-10-23T02:07:32.831Z,98.00
2022-10-23T02:08:32.822Z,97.89
2022-10-23T02:09:32.818Z,98.25
2022-10-23T02:10:32.820Z,98.66
2022-10-23T02:11:32.799Z,98.66
2022-10-23T02:12:32.800Z,98.86
2022-10-23T02:13:32.799Z,98.70
2022-10-23T02:14:32.779Z,99.52
2022-10-23T02:15:32.791Z,99.92
2022-10-23T02:16:32.768Z,99.72
2022-10-23T02:17:32.769Z,99.98
2022-10-23T02:18:32.765Z,99.88
2022-10-23T02:19:32.760Z,99.47
2022-10-23T02:20:32.820Z,99.57
2022-10-23T02:21:33.088Z,99.47
2022-10-23T02:22:33.153Z,99.77
2022-10-23T02:23:32.736Z,99.67
2022-10-23T02:24:32.737Z,99.37
2022-10-23T02:25:32.761Z,99.52
2022-10-23T02:26:32.705Z,99.99
2022-10-23T02:27:32.698Z,99.98
2022-10-23T02:28:32.688Z,99.57
2022-10-23T02:29:32.680Z,99.52
2022-10-23T02:30:32.687Z,99.62
2022-10-23T02:31:32.665Z,99.77
2022-10-23T02:32:32.669Z,99.88
2022-10-23T02:33:32.686Z,99.67
2022-10-23T02:34:32.636Z,99.47
2022-10-23T02:35:32.645Z,99.77
2022-10-23T02:36:32.625Z,99.67
2022-10-23T02:37:32.629Z,99.37
2022-10-23T02:38:32.625Z,99.06
2022-10-23T02:39:32.605Z,99.16
2022-10-23T02:40:32.606Z,98.96
2022-10-23T02:41:32.595Z,99.37
2022-10-23T02:42:32.584Z,99.16
2022-10-23T02:43:32.576Z,98.81
2022-10-23T02:44:32.565Z,98.71
2022-10-23T02:45:32.624Z,98.50
2022-10-23T02:46:32.553Z,98.30
2022-10-23T02:47:32.553Z,98.30
2022-10-23T02:48:32.548Z,98.41
2022-10-23T02:49:32.614Z,98.50
2022-10-23T02:50:32.544Z,98.61
2022-10-23T02:51:32.523Z,98.50
2022-10-23T02:52:32.513Z,98.10
2022-10-23T02:53:32.513Z,98.20
2022-10-23T02:54:32.503Z,98.30
2022-10-23T02:55:32.572Z,98.30
2022-10-23T02:56:34.465Z,98.30
2022-10-23T02:57:32.512Z,98.50
2022-10-23T02:58:32.521Z,98.50
2022-10-23T02:59:32.502Z,98.30
2022-10-23T03:00:32.493Z,98.41
2022-10-23T03:02:58.449Z,98.20
2022-10-23T03:03:58.423Z,98.20
2022-10-23T03:04:58.723Z,98.30
2022-10-23T03:05:58.433Z,98.50
2022-10-23T03:06:58.413Z,98.81
2022-10-23T03:07:58.421Z,98.71
2022-10-23T03:08:58.727Z,98.71
2022-10-23T03:09:58.403Z,98.50
2022-10-23T03:10:58.734Z,98.61
2022-10-23T03:11:58.843Z,98.81
2022-10-23T03:12:58.847Z,98.61
2022-10-23T03:13:58.362Z,98.50
2022-10-23T03:14:58.372Z,98.41
2022-10-23T03:15:58.361Z,98.30
2022-10-23T03:16:58.342Z,98.30
2022-10-23T03:17:58.352Z,98.61
2022-10-23T03:18:59.184Z,98.50
2022-10-23T03:19:58.401Z,98.41
2022-10-23T03:20:59.221Z,98.35
2022-10-23T03:21:58.351Z,98.45
2022-10-23T03:22:58.310Z,98.45
2022-10-23T03:23:58.290Z,98.75
2022-10-23T03:24:58.352Z,99.27
2022-10-23T03:25:58.296Z,99.41
2022-10-23T03:26:58.290Z,99.41
2022-10-23T03:27:58.277Z,99.52
2022-10-23T03:28:58.270Z,99.87
2022-10-23T03:29:58.279Z,99.99
2022-10-23T03:30:58.251Z,99.99
2022-10-23T03:31:58.243Z,99.99
2022-10-23T03:32:58.279Z,99.99
2022-10-23T03:33:58.259Z,99.99
2022-10-23T03:34:59.158Z,99.99
2022-10-23T03:35:59.069Z,99.99
2022-10-23T03:36:58.415Z,99.99
2022-10-23T03:37:58.400Z,99.99
2022-10-23T03:38:58.517Z,99.99
2022-10-23T03:39:58.520Z,99.99
2022-10-23T03:40:58.629Z,99.99
2022-10-23T03:41:58.637Z,99.99
2022-10-23T03:42:58.179Z,99.99
2022-10-23T03:43:58.233Z,99.99
2022-10-23T03:44:58.181Z,99.99
2022-10-23T03:45:58.148Z,99.99
2022-10-23T03:46:58.158Z,99.99
2022-10-23T03:47:58.127Z,99.99
2022-10-23T03:48:59.098Z,99.99
2022-10-23T03:49:58.166Z,99.99
2022-10-23T03:50:58.145Z,99.99
2022-10-23T03:51:58.178Z,99.99
2022-10-23T03:52:58.096Z,99.99
2022-10-23T03:53:58.096Z,99.99
2022-10-23T03:54:58.099Z,99.99
2022-10-23T03:55:58.123Z,99.99
2022-10-23T03:56:58.095Z,99.99
2022-10-23T03:57:58.998Z,99.99
2022-10-23T03:58:58.085Z,99.99
2022-10-23T03:59:58.074Z,99.99
2022-10-23T04:00:58.397Z,99.99
2022-10-23T04:01:58.175Z,99.99
2022-10-23T04:02:58.048Z,99.99
2022-10-23T04:03:59.505Z,99.99
2022-10-23T04:04:58.056Z,99.99
2022-10-23T04:05:58.384Z,99.99
2022-10-23T04:06:58.011Z,99.99
2022-10-23T04:07:58.003Z,99.99
2022-10-23T04:08:58.054Z,99.99
2022-10-23T04:09:58.874Z,99.99
2022-10-23T04:10:58.774Z,99.99
2022-10-23T04:11:57.984Z,99.99
2022-10-23T04:12:57.961Z,99.99
2022-10-23T04:13:57.983Z,99.99
2022-10-23T04:14:57.964Z,99.99
2022-10-23T04:15:57.965Z,99.99
2022-10-23T04:16:57.942Z,99.99
2022-10-23T04:17:57.933Z,99.99
2022-10-23T04:18:57.942Z,99.99
2022-10-23T04:19:57.941Z,99.99
2022-10-23T04:20:58.013Z,99.99
2022-10-23T04:21:58.743Z,99.99
2022-10-23T04:22:58.901Z,99.99
2022-10-23T04:23:58.606Z,99.99
2022-10-23T04:24:57.885Z,99.99
2022-10-23T04:25:57.929Z,99.99
2022-10-23T04:26:58.734Z,99.99
2022-10-23T04:27:58.211Z,99.99
2022-10-23T04:28:58.833Z,99.99
2022-10-23T04:29:59.228Z,99.99
2022-10-23T04:30:58.353Z,99.99
2022-10-23T04:31:58.833Z,99.99
2022-10-23T04:32:58.741Z,99.99
2022-10-23T04:33:58.715Z,99.99
2022-10-23T04:34:58.392Z,99.73
2022-10-23T04:35:57.832Z,99.32
2022-10-23T04:36:58.861Z,99.11
2022-10-23T04:37:58.202Z,99.02
2022-10-23T04:38:57.809Z,98.81
2022-10-23T04:39:59.439Z,98.66
2022-10-23T04:40:58.622Z,98.46
2022-10-23T04:41:57.781Z,98.36
2022-10-23T04:42:58.801Z,98.26
2022-10-23T04:43:58.721Z,98.46
2022-10-23T04:44:58.611Z,98.26
2022-10-23T04:45:57.843Z,98.16
2022-10-23T04:46:57.735Z,98.16
2022-10-23T04:47:57.740Z,98.16
2022-10-23T04:48:57.858Z,98.26
2022-10-23T04:49:57.870Z,98.26
2022-10-23T04:50:57.768Z,98.26
2022-10-23T04:51:57.779Z,98.26
2022-10-23T04:52:57.710Z,98.16
2022-10-23T04:53:57.688Z,98.05
2022-10-23T04:54:57.700Z,98.05
2022-10-23T04:55:57.691Z,98.05
2022-10-23T04:56:57.676Z,97.96
2022-10-23T04:57:57.668Z,97.96
2022-10-23T04:58:57.748Z,98.16
2022-10-23T04:59:57.727Z,98.41
2022-10-23T05:00:57.739Z,98.50
2022-10-23T05:01:57.663Z,98.71
2022-10-23T05:02:57.618Z,98.81
2022-10-23T05:03:57.764Z,99.02
2022-10-23T05:04:57.607Z,99.16
2022-10-23T05:05:57.617Z,99.37
2022-10-23T05:06:57.595Z,99.57
2022-10-23T05:07:57.856Z,99.77
2022-10-23T05:08:58.588Z,99.88
2022-10-23T05:09:57.587Z,99.99
2022-10-23T05:10:57.928Z,99.99
2022-10-23T05:11:57.566Z,99.99
2022-10-23T05:12:57.557Z,99.99
2022-10-23T05:13:57.547Z,99.99
2022-10-23T05:14:57.544Z,99.99
2022-10-23T05:15:57.554Z,99.99
2022-10-23T05:16:57.524Z,99.99
2022-10-23T05:17:57.533Z,99.99
2022-10-23T05:18:58.065Z,99.99
2022-10-23T05:19:57.546Z,99.99
2022-10-23T05:20:57.535Z,99.99
2022-10-23T05:21:57.503Z,99.99
2022-10-23T05:22:57.516Z,99.99
2022-10-23T05:23:57.551Z,99.99
2022-10-23T05:24:57.489Z,99.99
2022-10-23T05:25:57.523Z,99.99
2022-10-23T05:26:57.457Z,99.99
2022-10-23T05:27:57.472Z,99.99
2022-10-23T05:28:57.484Z,99.99
2022-10-23T05:29:57.461Z,99.99
2022-10-23T05:30:57.453Z,99.99
2022-10-23T05:31:57.423Z,99.99
2022-10-23T05:32:57.441Z,99.99
2022-10-23T05:33:57.423Z,99.99
2022-10-23T05:34:57.414Z,99.99
2022-10-23T05:35:57.423Z,99.99
2022-10-23T05:36:57.392Z,99.99
2022-10-23T05:37:57.393Z,99.99
2022-10-23T05:38:57.390Z,99.99
2022-10-23T05:39:57.424Z,99.99
2022-10-23T05:40:57.602Z,99.99
2022-10-23T05:41:57.381Z,99.99
2022-10-23T05:42:57.353Z,99.99
2022-10-23T05:43:57.351Z,99.99
2022-10-23T05:44:57.341Z,99.99
2022-10-23T05:45:58.312Z,99.99
2022-10-23T05:46:58.293Z,99.99
2022-10-23T05:48:05.842Z,99.99
2022-10-23T05:48:57.341Z,99.99
2022-10-23T05:49:57.320Z,99.99
2022-10-23T05:50:57.302Z,99.99
2022-10-23T05:51:57.313Z,99.99
2022-10-23T05:52:57.290Z,99.99
2022-10-23T05:53:57.499Z,99.99
2022-10-23T05:54:57.280Z,99.99
2022-10-23T05:55:57.509Z,99.99
2022-10-23T05:56:57.279Z,99.99
2022-10-23T05:57:57.716Z,99.99
2022-10-23T05:58:57.740Z,99.99
2022-10-23T05:59:57.320Z,99.99
2022-10-23T06:00:57.353Z,99.99
2022-10-23T06:01:57.480Z,99.99
2022-10-23T06:02:57.232Z,99.99
2022-10-23T06:03:57.219Z,99.99
2022-10-23T06:04:58.671Z,99.99
2022-10-23T06:05:57.240Z,99.99
2022-10-23T06:06:57.197Z,99.99
2022-10-23T06:07:57.209Z,99.99
2022-10-23T06:08:57.178Z,99.99
2022-10-23T06:09:57.217Z,99.99
2022-10-23T06:10:57.236Z,99.99
2022-10-23T06:11:57.222Z,99.99
2022-10-23T06:12:57.146Z,99.99
2022-10-23T06:14:57.683Z,99.99
2022-10-23T06:15:57.265Z,99.99
2022-10-23T06:16:57.136Z,99.99
2022-10-23T06:17:57.145Z,99.99
2022-10-23T06:18:58.038Z,99.99
2022-10-23T06:19:57.277Z,99.99
2022-10-23T06:20:57.165Z,99.99
2022-10-23T06:21:57.173Z,99.99
2022-10-23T06:22:57.086Z,99.99
2022-10-23T06:23:57.192Z,99.99
2022-10-23T06:24:57.084Z,99.99
2022-10-23T06:25:57.875Z,99.99
2022-10-23T06:26:57.719Z,99.99
2022-10-23T06:27:57.064Z,99.99
2022-10-23T06:28:57.065Z,99.99
2022-10-23T06:29:57.050Z,99.99
2022-10-23T06:30:57.065Z,99.99
2022-10-23T06:31:57.033Z,99.99
2022-10-23T06:32:57.974Z,99.99
2022-10-23T06:33:57.874Z,99.99
2022-10-23T06:34:57.406Z,99.99
2022-10-23T06:35:57.934Z,99.99
2022-10-23T06:36:57.002Z,99.99
2022-10-23T06:37:56.990Z,99.99
2022-10-23T06:38:57.087Z,99.99
2022-10-23T06:39:56.984Z,99.99
2022-10-23T06:40:56.993Z,99.99
2022-10-23T06:41:56.964Z,99.99
2022-10-23T06:42:56.944Z,99.99
2022-10-23T06:43:57.055Z,99.99
2022-10-23T06:44:56.935Z,99.99
2022-10-23T06:45:56.952Z,99.99
2022-10-23T06:46:56.923Z,99.99
2022-10-23T06:47:56.921Z,99.99
2022-10-23T06:48:56.912Z,99.99
2022-10-23T06:49:56.908Z,99.99
2022-10-23T06:50:56.910Z,99.99
2022-10-23T06:51:56.893Z,99.99
2022-10-23T06:52:56.892Z,99.99
2022-10-23T06:53:56.892Z,99.99
2022-10-23T06:54:56.872Z,99.99
2022-10-23T06:55:56.881Z,99.99
2022-10-23T06:56:56.850Z,99.99
2022-10-23T06:57:56.850Z,99.99
2022-10-23T06:58:56.830Z,99.99
2022-10-23T06:59:56.838Z,99.99
2022-10-23T07:00:56.919Z,99.99
2022-10-23T07:01:56.824Z,99.99
2022-10-23T07:02:56.811Z,99.99
2022-10-23T07:03:56.810Z,99.99
2022-10-23T07:04:56.799Z,99.99
2022-10-23T07:05:56.857Z,99.99
2022-10-23T07:06:56.808Z,99.99
2022-10-23T07:07:56.791Z,99.99
2022-10-23T07:08:56.769Z,99.99
2022-10-23T07:09:56.785Z,99.99
2022-10-23T07:10:56.779Z,99.98
2022-10-23T07:11:56.769Z,99.88
2022-10-23T07:12:56.747Z,99.77
2022-10-23T07:13:56.747Z,99.67
2022-10-23T07:14:56.728Z,99.67
2022-10-23T07:15:56.747Z,99.57
2022-10-23T07:16:56.717Z,99.77
2022-10-23T07:17:56.718Z,99.77
2022-10-23T07:18:56.707Z,99.77
2022-10-23T07:19:56.698Z,99.47
2022-10-23T07:20:56.830Z,99.32
2022-10-23T07:21:56.687Z,99.32
2022-10-23T07:22:56.676Z,99.32
2022-10-23T07:23:56.675Z,99.22
2022-10-23T07:24:56.676Z,99.02
2022-10-23T07:25:56.686Z,99.22
2022-10-23T07:26:56.655Z,99.07
2022-10-23T07:27:56.646Z,98.97
2022-10-23T07:28:56.655Z,98.86
2022-10-23T07:29:56.635Z,98.97
2022-10-23T07:30:56.645Z,98.77
2022-10-23T07:31:56.616Z,98.41
2022-10-23T07:32:56.604Z,98.21
2022-10-23T07:33:56.609Z,98.07
2022-10-23T07:34:56.614Z,97.76
2022-10-23T07:35:56.614Z,97.45
2022-10-23T07:36:56.574Z,97.05
2022-10-23T07:37:56.583Z,96.64
2022-10-23T07:38:56.564Z,96.39
2022-10-23T07:39:56.574Z,96.80
2022-10-23T07:40:56.574Z,96.70
2022-10-23T07:41:56.557Z,96.60
2022-10-23T07:42:56.542Z,96.15
2022-10-23T07:43:56.534Z,96.25
2022-10-23T07:44:56.522Z,96.35
2022-10-23T07:45:56.552Z,96.35
2022-10-23T07:46:56.526Z,96.41
2022-10-23T07:47:56.514Z,96.41
2022-10-23T07:48:56.492Z,96.61
2022-10-23T07:49:56.493Z,96.41
2022-10-23T07:50:56.875Z,96.41
2022-10-23T07:51:56.479Z,96.51
2022-10-23T07:52:56.474Z,96.36
2022-10-23T07:53:56.462Z,96.30
2022-10-23T07:54:56.452Z,96.06
2022-10-23T07:55:56.470Z,95.95
2022-10-23T07:56:56.480Z,95.86
2022-10-23T07:57:56.443Z,95.75
2022-10-23T07:58:56.433Z,95.65
2022-10-23T07:59:56.430Z,95.55
2022-10-23T08:00:56.585Z,95.45
2022-10-23T08:01:56.833Z,95.35
2022-10-23T08:02:56.446Z,95.55
2022-10-23T08:03:56.514Z,95.55
2022-10-23T08:04:56.394Z,95.55
2022-10-23T08:05:56.407Z,95.30
2022-10-23T08:06:56.512Z,95.61
2022-10-23T08:07:56.369Z,95.71
2022-10-23T08:08:56.378Z,95.71
2022-10-23T08:09:56.371Z,95.81
2022-10-23T08:10:56.341Z,95.71
2022-10-23T08:11:56.382Z,95.81
2022-10-23T08:12:56.340Z,95.40
2022-10-23T08:13:56.340Z,96.01
2022-10-23T08:14:56.342Z,96.51
2022-10-23T08:15:56.320Z,96.51
2022-10-23T08:16:56.377Z,96.31
2022-10-23T08:17:56.320Z,96.22
2022-10-23T08:18:56.310Z,96.42
2022-10-23T08:19:56.279Z,96.42
2022-10-23T08:20:56.281Z,96.11
2022-10-23T08:21:56.284Z,95.81
2022-10-23T08:22:56.281Z,95.91
2022-10-23T08:23:56.270Z,96.07
2022-10-23T08:24:56.261Z,96.07
2022-10-23T08:25:57.111Z,96.37
2022-10-23T08:26:56.699Z,96.37
2022-10-23T08:27:56.271Z,96.67
2022-10-23T08:28:56.310Z,96.88
2022-10-23T08:29:56.219Z,96.78
2022-10-23T08:30:56.218Z,96.47
2022-10-23T08:31:56.229Z,96.57
2022-10-23T08:32:56.199Z,96.47
2022-10-23T08:33:56.189Z,95.97
2022-10-23T08:34:56.190Z,96.17
2022-10-23T08:35:56.177Z,96.37
2022-10-23T08:36:56.566Z,96.57
2022-10-23T08:37:56.948Z,96.57
2022-10-23T08:38:56.188Z,96.53
2022-10-23T08:39:56.155Z,96.22
2022-10-23T08:40:57.189Z,96.42
2022-10-23T08:41:56.391Z,96.33
2022-10-23T08:42:56.147Z,96.02
2022-10-23T08:43:56.399Z,95.17
2022-10-23T08:44:57.050Z,94.46
2022-10-23T08:45:56.956Z,94.26
2022-10-23T08:46:57.114Z,94.11
2022-10-23T08:47:57.017Z,93.71
2022-10-23T08:48:56.120Z,92.85
2022-10-23T08:49:56.084Z,92.65
2022-10-23T08:50:56.087Z,91.39
2022-10-23T08:51:56.866Z,90.28
2022-10-23T08:52:56.076Z,89.94
2022-10-23T08:53:56.258Z,89.74
2022-10-23T08:54:56.887Z,89.74
2022-10-23T08:55:57.046Z,89.19
2022-10-23T08:56:56.066Z,88.68
2022-10-23T08:57:56.091Z,88.89
2022-10-23T08:58:56.321Z,88.89
2022-10-23T08:59:56.006Z,88.65
2022-10-23T09:00:56.078Z,89.25
2022-10-23T09:01:57.039Z,88.85
2022-10-23T09:02:56.887Z,88.90
2022-10-23T09:03:55.996Z,89.01
2022-10-23T09:04:56.018Z,88.26
2022-10-23T09:05:56.846Z,86.44
2022-10-23T09:06:56.017Z,81.37
2022-10-23T09:07:56.035Z,79.36
2022-10-23T09:08:55.972Z,81.43
2022-10-23T09:09:55.954Z,80.69
2022-10-23T09:10:56.347Z,80.39
2022-10-23T09:11:57.016Z,79.79
2022-10-23T09:12:55.944Z,80.75
2022-10-23T09:13:55.915Z,78.54
2022-10-23T09:14:56.194Z,78.44
2022-10-23T09:15:56.175Z,78.74
2022-10-23T09:16:56.907Z,78.00
2022-10-23T09:17:55.933Z,78.90
2022-10-23T09:18:56.854Z,79.30
2022-10-23T09:19:56.233Z,78.77
2022-10-23T09:20:56.234Z,78.27
2022-10-23T09:21:56.236Z,76.35
2022-10-23T09:22:55.873Z,75.21
2022-10-23T09:23:55.855Z,77.22
2022-10-23T09:24:55.846Z,76.92
2022-10-23T09:25:55.844Z,74.88
2022-10-23T09:26:56.905Z,76.48
2022-10-23T09:27:57.393Z,72.67
2022-10-23T09:28:55.863Z,73.87
2022-10-23T09:29:56.293Z,73.27
2022-10-23T09:30:56.723Z,73.57
2022-10-23T09:31:55.805Z,72.47
2022-10-23T09:32:55.842Z,72.87
2022-10-23T09:33:55.793Z,73.94
2022-10-23T09:34:55.773Z,73.13
2022-10-23T09:35:55.768Z,72.94
2022-10-23T09:37:56.754Z,72.43
2022-10-23T09:38:55.754Z,73.54
2022-10-23T09:39:55.742Z,73.54
2022-10-23T09:40:55.953Z,72.53
2022-10-23T09:41:57.028Z,72.83
2022-10-23T09:42:55.804Z,71.53
2022-10-23T09:43:56.183Z,74.98
2022-10-23T09:44:55.705Z,73.64
2022-10-23T09:45:55.772Z,72.94
2022-10-23T09:46:55.800Z,73.74
2022-10-23T09:47:55.801Z,74.14
2022-10-23T09:48:56.050Z,74.44
2022-10-23T09:49:56.002Z,74.04
2022-10-23T09:50:55.723Z,72.33
2022-10-23T09:51:56.504Z,72.63
2022-10-23T09:52:56.057Z,69.92
2022-10-23T09:53:55.660Z,71.56
2022-10-23T09:54:56.472Z,71.26
2022-10-23T09:55:55.692Z,70.83
2022-10-23T09:56:55.749Z,71.43
2022-10-23T09:57:55.652Z,72.03
2022-10-23T09:58:55.709Z,73.13
2022-10-23T09:59:56.503Z,72.74
2022-10-23T10:00:55.701Z,71.23
2022-10-23T10:01:56.590Z,73.13
2022-10-23T10:02:55.646Z,70.32
2022-10-23T10:03:56.379Z,70.59
2022-10-23T10:04:56.532Z,69.39
2022-10-23T10:05:55.625Z,69.89
2022-10-23T10:06:56.152Z,71.70
2022-10-23T10:07:55.590Z,71.30
2022-10-23T10:08:55.561Z,71.00
2022-10-23T10:09:55.550Z,71.26
2022-10-23T10:10:55.554Z,71.56
2022-10-23T10:11:55.678Z,69.26
2022-10-23T10:12:55.582Z,68.96
2022-10-23T10:13:55.618Z,68.82
2022-10-23T10:14:55.625Z,70.19
2022-10-23T10:15:55.630Z,70.39
2022-10-23T10:16:55.613Z,68.46
2022-10-23T10:17:55.520Z,69.59
2022-10-23T10:18:55.492Z,69.62
2022-10-23T10:19:55.514Z,68.92
2022-10-23T10:20:55.519Z,69.09
2022-10-23T10:21:56.442Z,70.29
2022-10-23T10:22:55.520Z,70.79
2022-10-23T10:23:55.579Z,70.39
2022-10-23T10:24:55.547Z,70.19
2022-10-23T10:25:55.471Z,70.09
2022-10-23T10:26:55.465Z,68.89
2022-10-23T10:27:55.662Z,71.09
2022-10-23T10:28:55.481Z,69.69
2022-10-23T10:29:55.482Z,68.99
2022-10-23T10:30:55.513Z,69.53
2022-10-23T10:31:56.251Z,68.92
2022-10-23T10:32:55.477Z,69.53
2022-10-23T10:33:55.701Z,70.93
2022-10-23T10:34:55.390Z,69.79
2022-10-23T10:35:55.350Z,70.59
2022-10-23T10:36:55.345Z,70.19
2022-10-23T10:37:55.533Z,69.09
2022-10-23T10:38:55.371Z,68.66
2022-10-23T10:39:55.352Z,67.79
2022-10-23T10:40:55.329Z,68.09
2022-10-23T10:41:56.311Z,68.99
2022-10-23T10:42:56.226Z,69.59
2022-10-23T10:43:55.340Z,69.49
2022-10-23T10:44:55.289Z,68.99
2022-10-23T10:45:55.279Z,67.59
2022-10-23T10:46:55.270Z,67.29
2022-10-23T10:47:55.370Z,67.62
2022-10-23T10:48:55.262Z,67.49
2022-10-23T10:49:55.259Z,67.39
2022-10-23T10:50:55.250Z,67.99
2022-10-23T10:51:55.251Z,67.79
2022-10-23T10:52:55.416Z,68.99
2022-10-23T10:53:55.239Z,69.39
2022-10-23T10:54:55.642Z,69.39
2022-10-23T10:55:55.459Z,69.99
2022-10-23T10:56:55.482Z,69.69
2022-10-23T10:57:57.957Z,69.36
2022-10-23T10:58:55.241Z,69.16
2022-10-23T10:59:55.200Z,69.06
2022-10-23T11:00:55.251Z,68.96
2022-10-23T11:01:55.263Z,67.49
2022-10-23T11:02:55.187Z,69.16
2022-10-23T11:03:55.170Z,68.69
2022-10-23T11:04:55.159Z,66.99
2022-10-23T11:05:55.225Z,69.19
2022-10-23T11:06:55.139Z,67.59
2022-10-23T11:07:55.209Z,68.19
2022-10-23T11:08:58.020Z,69.19
2022-10-23T11:09:55.118Z,69.89
2022-10-23T11:10:55.118Z,68.69
2022-10-23T11:11:55.117Z,68.69
2022-10-23T11:12:55.119Z,68.79
2022-10-23T11:13:55.101Z,70.19
2022-10-23T11:14:55.102Z,69.69
2022-10-23T11:15:55.072Z,70.12
2022-10-23T11:16:55.161Z,68.12
2022-10-23T11:17:55.140Z,69.23
2022-10-23T11:18:55.065Z,68.42
2022-10-23T11:19:55.209Z,70.12
2022-10-23T11:20:55.041Z,68.82
2022-10-23T11:21:55.379Z,67.62
2022-10-23T11:22:55.061Z,68.52
2022-10-23T11:23:55.019Z,70.32
2022-10-23T11:24:57.258Z,69.12
2022-10-23T11:25:55.009Z,69.12
2022-10-23T11:26:55.007Z,68.22
2022-10-23T11:27:55.930Z,68.32
2022-10-23T11:28:54.988Z,70.23
2022-10-23T11:29:54.979Z,68.52
2022-10-23T11:30:54.979Z,69.02
2022-10-23T11:31:54.959Z,68.85
2022-10-23T11:32:54.979Z,67.96
2022-10-23T11:33:54.950Z,67.85
2022-10-23T11:34:54.948Z,67.55
2022-10-23T11:35:54.940Z,67.96
2022-10-23T11:36:54.938Z,68.35
2022-10-23T11:37:54.951Z,67.96
2022-10-23T11:38:54.927Z,68.05
2022-10-23T11:39:54.908Z,70.06
2022-10-23T11:40:54.928Z,70.66
2022-10-23T11:41:54.909Z,69.56
2022-10-23T11:42:54.957Z,68.15
2022-10-23T11:43:54.893Z,68.89
2022-10-23T11:44:54.889Z,69.69
2022-10-23T11:45:54.878Z,70.19
2022-10-23T11:46:54.870Z,69.99
2022-10-23T11:47:54.887Z,68.89
2022-10-23T11:48:54.850Z,70.39
2022-10-23T11:49:54.851Z,71.20
2022-10-23T11:50:54.871Z,70.79
2022-10-23T11:51:54.866Z,69.39
2022-10-23T11:53:09.394Z,69.09
2022-10-23T11:53:54.822Z,70.89
2022-10-23T11:54:54.828Z,70.29
2022-10-23T11:55:54.809Z,71.20
2022-10-23T11:56:54.817Z,72.20
2022-10-23T11:57:54.808Z,70.39
2022-10-23T11:58:54.808Z,68.29
2022-10-23T11:59:54.790Z,68.76
2022-10-23T12:00:54.779Z,70.66
2022-10-23T12:01:54.851Z,70.16
2022-10-23T12:02:59.031Z,69.06
2022-10-23T12:03:54.769Z,69.86
2022-10-23T12:04:54.752Z,69.96
2022-10-23T12:06:54.738Z,68.05
2022-10-23T12:07:54.721Z,69.76
2022-10-23T12:08:54.738Z,69.56
2022-10-23T12:09:55.278Z,68.69
2022-10-23T12:10:54.708Z,70.16
2022-10-23T12:11:54.708Z,70.06
2022-10-23T12:12:54.710Z,68.85
2022-10-23T12:13:54.707Z,68.76
2022-10-23T12:14:54.675Z,68.65
2022-10-23T12:15:57.160Z,68.96
2022-10-23T12:16:54.668Z,69.76
2022-10-23T12:17:54.657Z,69.26
2022-10-23T12:18:54.681Z,68.76
2022-10-23T12:19:54.637Z,69.56
2022-10-23T12:20:55.515Z,69.46
2022-10-23T12:21:54.647Z,68.85
2022-10-23T12:22:54.626Z,69.42
2022-10-23T12:23:54.628Z,69.82
2022-10-23T12:24:54.618Z,69.93
2022-10-23T12:25:54.600Z,71.53
2022-10-23T12:26:54.620Z,70.83
2022-10-23T12:27:54.589Z,71.53
2022-10-23T12:28:54.598Z,71.12
2022-10-23T12:29:54.568Z,70.76
2022-10-23T12:31:54.555Z,70.76
2022-10-23T12:32:54.553Z,70.26
2022-10-23T12:33:54.556Z,70.96
2022-10-23T12:34:54.537Z,70.66
2022-10-23T12:35:54.536Z,69.96
2022-10-23T12:36:54.521Z,69.76
2022-10-23T12:37:54.526Z,69.66
2022-10-23T12:38:54.517Z,69.66
2022-10-23T12:39:54.507Z,69.76
2022-10-23T12:40:54.506Z,69.56
2022-10-23T12:41:54.494Z,68.69
2022-10-23T12:42:55.486Z,68.39
2022-10-23T12:43:55.375Z,69.39
2022-10-23T12:44:54.475Z,69.39
2022-10-23T12:45:54.466Z,68.12
2022-10-23T12:46:54.446Z,69.02
2022-10-23T12:47:54.475Z,69.12
2022-10-23T12:48:54.539Z,70.32
2022-10-23T12:49:54.466Z,70.53
2022-10-23T12:50:55.458Z,70.43
2022-10-23T12:51:54.455Z,69.73
2022-10-23T12:52:55.256Z,69.12
2022-10-23T12:53:54.445Z,69.82
2022-10-23T12:54:54.418Z,70.63
2022-10-23T12:55:54.449Z,71.53
2022-10-23T12:56:54.396Z,71.56
2022-10-23T12:57:54.859Z,70.76